createdAt,value
2023-04-24T00:02:18.424Z,0
2023-04-24T00:08:38.341Z,0
2023-04-24T00:15:01.342Z,0
2023-04-24T00:21:21.358Z,0
2023-04-24T00:27:44.361Z,0
2023-04-24T00:34:04.471Z,0
2023-04-24T00:40:27.332Z,0
2023-04-24T00:46:47.325Z,0
2023-04-24T00:53:10.455Z,0
2023-04-24T00:59:30.415Z,0
2023-04-24T01:05:53.323Z,0
2023-04-24T01:12:13.404Z,0
2023-04-24T01:18:36.347Z,0
2023-04-24T01:24:56.406Z,0
2023-04-24T01:31:19.406Z,0
2023-04-24T01:37:39.403Z,0
2023-04-24T01:44:02.366Z,0
2023-04-24T01:50:22.425Z,0
2023-04-24T01:56:45.368Z,0
2023-04-24T02:03:05.523Z,0
2023-04-24T02:09:28.405Z,0
2023-04-24T02:15:48.383Z,0
2023-04-24T02:22:11.334Z,0
2023-04-24T02:28:31.405Z,0
2023-04-24T02:34:54.374Z,0
2023-04-24T02:41:14.358Z,0
2023-04-24T02:47:37.729Z,0
2023-04-24T02:53:57.391Z,0
2023-04-24T03:00:20.561Z,0
2023-04-24T03:06:40.403Z,0
2023-04-24T03:13:03.399Z,0
2023-04-24T03:19:23.423Z,0
2023-04-24T03:42:29.364Z,0
2023-04-24T03:48:52.326Z,0
2023-04-24T03:55:12.384Z,1
2023-04-24T04:01:35.343Z,5
2023-04-24T04:07:55.407Z,12
2023-04-24T04:14:18.316Z,24
2023-04-24T04:20:38.377Z,25
2023-04-24T04:27:01.423Z,45
2023-04-24T04:33:21.312Z,43
2023-04-24T04:39:44.724Z,69
2023-04-24T04:46:04.453Z,75
2023-04-24T04:52:27.383Z,65
2023-04-24T04:58:47.369Z,76
2023-04-24T05:05:10.502Z,124
2023-04-24T05:11:30.431Z,394
2023-04-24T05:17:53.426Z,367
2023-04-24T05:24:13.366Z,346
2023-04-24T05:30:36.402Z,359
2023-04-24T05:36:56.379Z,238
2023-04-24T05:43:19.441Z,168
2023-04-24T05:49:39.381Z,225
2023-04-24T05:56:02.470Z,171
2023-04-24T06:02:22.488Z,192
2023-04-24T06:08:45.353Z,215
2023-04-24T06:15:05.454Z,189
2023-04-24T06:21:28.333Z,411
2023-04-24T06:27:48.363Z,532
2023-04-24T06:34:11.604Z,902
2023-04-24T06:40:31.405Z,1308
2023-04-24T06:46:54.394Z,972
2023-04-24T06:53:14.401Z,755
2023-04-24T06:59:37.363Z,499
2023-04-24T07:05:57.386Z,761
2023-04-24T07:12:20.394Z,1177
2023-04-24T07:18:40.413Z,1190
2023-04-24T07:25:03.353Z,786
2023-04-24T07:31:23.423Z,826
2023-04-24T07:37:46.436Z,1164
2023-04-24T07:44:06.355Z,944
2023-04-24T07:50:29.426Z,1082
2023-04-24T07:56:49.313Z,1098
2023-04-24T08:03:12.442Z,1147
2023-04-24T08:09:32.386Z,1006
2023-04-24T08:15:55.458Z,685
2023-04-24T08:22:15.461Z,1071
2023-04-24T08:28:38.535Z,1256
2023-04-24T08:34:58.341Z,1053
2023-04-24T08:41:21.420Z,1283
2023-04-24T08:57:10.219Z,997
2023-04-24T09:03:30.417Z,875
2023-04-24T09:09:53.392Z,1996
2023-04-24T09:16:13.468Z,1517
2023-04-24T09:22:36.449Z,1215
2023-04-24T09:28:56.373Z,1292
2023-04-24T09:35:19.365Z,1306
2023-04-24T09:41:39.446Z,1745
2023-04-24T09:48:02.466Z,2431
2023-04-24T09:54:22.565Z,2083
2023-04-24T10:00:45.501Z,2121
2023-04-24T10:07:05.369Z,2425
2023-04-24T10:13:28.443Z,2561
2023-04-24T10:19:48.395Z,2435
2023-04-24T10:26:11.379Z,2407
2023-04-24T10:32:31.525Z,2596
2023-04-24T10:38:54.647Z,3773
2023-04-24T10:45:14.429Z,2600
2023-04-24T10:51:37.432Z,2608
2023-04-24T10:57:57.399Z,4284
2023-04-24T11:04:20.436Z,3496
2023-04-24T11:10:40.414Z,3098
2023-04-24T11:17:03.460Z,3398
2023-04-24T11:23:23.385Z,2639
2023-04-24T11:29:46.383Z,1275
2023-04-24T11:36:06.409Z,2295
2023-04-24T11:42:29.370Z,2132
2023-04-24T11:48:49.447Z,2484
2023-04-24T11:55:12.333Z,2455
2023-04-24T12:01:32.368Z,3775
2023-04-24T12:07:55.827Z,3683
2023-04-24T12:14:15.346Z,5815
2023-04-24T12:20:38.416Z,6482
2023-04-24T12:26:58.348Z,4844
2023-04-24T12:33:21.348Z,2818
2023-04-24T12:39:41.486Z,1805
2023-04-24T12:46:04.365Z,1574
2023-04-24T12:52:24.375Z,2189
2023-04-24T12:58:47.356Z,3380
2023-04-24T13:05:07.423Z,8737
2023-04-24T13:11:30.401Z,3889
2023-04-24T13:17:50.342Z,3549
2023-04-24T13:24:13.475Z,2333
2023-04-24T13:30:33.384Z,3883
2023-04-24T13:36:56.395Z,3592
2023-04-24T13:43:16.358Z,2572
2023-04-24T13:49:39.390Z,533
2023-04-24T13:55:59.399Z,2345
2023-04-24T14:12:28.072Z,2252
2023-04-24T14:18:48.360Z,3370
2023-04-24T14:25:13.321Z,4097
2023-04-24T14:31:33.456Z,9081
2023-04-24T14:37:56.355Z,10424
2023-04-24T14:44:16.371Z,4904
2023-04-24T14:50:39.451Z,4095
2023-04-24T14:56:59.369Z,3435
2023-04-24T15:03:22.685Z,4810
2023-04-24T15:09:42.382Z,7562
2023-04-24T15:16:05.418Z,7418
2023-04-24T15:22:25.405Z,7810
2023-04-24T15:28:48.400Z,7321
2023-04-24T15:35:10.024Z,4514
2023-04-24T15:41:31.376Z,2504
2023-04-24T15:47:51.419Z,4120
2023-04-24T15:54:14.332Z,4261
2023-04-24T16:00:34.621Z,3792
2023-04-24T16:06:57.450Z,3047
2023-04-24T16:13:17.376Z,2601
2023-04-24T16:19:40.437Z,1788
2023-04-24T16:26:00.390Z,1770
2023-04-24T16:32:23.395Z,1470
2023-04-24T16:38:43.449Z,1124
2023-04-24T16:45:06.417Z,1307
2023-04-24T16:51:26.372Z,1184
2023-04-24T16:57:49.393Z,1385
2023-04-24T17:04:09.514Z,1069
2023-04-24T17:10:32.475Z,928
2023-04-24T17:16:52.555Z,1139
2023-04-24T17:23:15.481Z,699
2023-04-24T17:29:35.426Z,425
2023-04-24T17:35:58.462Z,315
2023-04-24T17:42:18.452Z,296
2023-04-24T17:48:41.400Z,273
2023-04-24T17:55:01.425Z,250
2023-04-24T18:01:24.464Z,196
2023-04-24T18:07:44.372Z,205
2023-04-24T18:14:07.514Z,146
2023-04-24T18:20:27.427Z,125
2023-04-24T18:26:50.376Z,68
2023-04-24T18:33:10.494Z,36
2023-04-24T18:39:33.459Z,28
2023-04-24T18:45:53.449Z,15
2023-04-24T18:52:16.443Z,10
2023-04-24T18:58:36.450Z,4
2023-04-24T19:04:59.392Z,1
2023-04-24T19:11:19.397Z,0
2023-04-24T19:28:51.440Z,0
2023-04-24T19:35:11.313Z,0
2023-04-24T19:41:34.320Z,0
2023-04-24T19:47:54.430Z,0
2023-04-24T19:54:17.357Z,0
2023-04-24T20:00:37.336Z,0
2023-04-24T20:07:00.387Z,0
2023-04-24T20:13:20.401Z,0
2023-04-24T20:19:43.401Z,0
2023-04-24T20:26:03.346Z,0
2023-04-24T20:32:26.372Z,0
2023-04-24T20:38:46.384Z,0
2023-04-24T20:45:09.424Z,0
2023-04-24T20:51:29.383Z,0
2023-04-24T20:57:52.353Z,0
2023-04-24T21:04:12.391Z,0
2023-04-24T21:10:35.400Z,0
2023-04-24T21:16:55.394Z,0
2023-04-24T21:23:18.441Z,0
2023-04-24T21:29:38.379Z,0
2023-04-24T21:36:01.343Z,0
2023-04-24T21:42:21.450Z,0
2023-04-24T21:48:44.338Z,0
2023-04-24T21:55:04.411Z,0
2023-04-24T22:20:39.381Z,0
2023-04-24T22:26:59.318Z,0
2023-04-24T22:33:22.378Z,0
2023-04-24T22:39:42.381Z,0
2023-04-24T22:46:05.385Z,0
2023-04-24T22:52:25.363Z,0
2023-04-24T22:58:48.479Z,0
2023-04-24T23:05:08.388Z,0
2023-04-24T23:11:31.406Z,0
2023-04-24T23:17:51.497Z,0
2023-04-24T23:24:14.315Z,0
2023-04-24T23:30:34.348Z,0
2023-04-24T23:36:57.393Z,0
2023-04-24T23:43:17.452Z,0
2023-04-24T23:49:40.377Z,0
2023-04-24T23:56:00.496Z,0
